sensor_id;sensor_type;location;lat;lon;timestamp;P1;durP1;ratioP1;P2;durP2;ratioP2
1410;SDS011;700;51.906;8.404;2024-01-30T00:03:20;12.87;;;11.40;;
1410;SDS011;700;51.906;8.404;2024-01-30T00:08:23;17.57;;;12.63;;
1410;SDS011;700;51.906;8.404;2024-01-30T00:13:24;17.67;;;12.90;;
1410;SDS011;700;51.906;8.404;2024-01-30T00:18:24;18.23;;;12.80;;
1410;SDS011;700;51.906;8.404;2024-01-30T00:23:30;28.93;;;17.90;;
1410;SDS011;700;51.906;8.404;2024-01-30T00:28:30;15.87;;;12.90;;
1410;SDS011;700;51.906;8.404;2024-01-30T00:33:31;20.20;;;11.60;;
1410;SDS011;700;51.906;8.404;2024-01-30T00:38:34;15.80;;;11.53;;
1410;SDS011;700;51.906;8.404;2024-01-30T00:43:35;15.10;;;12.83;;
1410;SDS011;700;51.906;8.404;2024-01-30T00:48:36;15.17;;;10.97;;
1410;SDS011;700;51.906;8.404;2024-01-30T00:53:37;14.20;;;10.67;;
1410;SDS011;700;51.906;8.404;2024-01-30T00:58:41;19.00;;;12.27;;
1410;SDS011;700;51.906;8.404;2024-01-30T01:03:42;15.60;;;10.97;;
1410;SDS011;700;51.906;8.404;2024-01-30T01:08:46;13.00;;;10.33;;
1410;SDS011;700;51.906;8.404;2024-01-30T01:13:52;15.40;;;10.87;;
1410;SDS011;700;51.906;8.404;2024-01-30T01:18:55;13.57;;;11.50;;
1410;SDS011;700;51.906;8.404;2024-01-30T01:23:58;14.73;;;10.87;;
1410;SDS011;700;51.906;8.404;2024-01-30T01:28:58;15.33;;;11.30;;
1410;SDS011;700;51.906;8.404;2024-01-30T01:33:59;13.53;;;10.10;;
1410;SDS011;700;51.906;8.404;2024-01-30T01:38:59;13.60;;;10.97;;
1410;SDS011;700;51.906;8.404;2024-01-30T01:44:00;13.00;;;10.67;;
1410;SDS011;700;51.906;8.404;2024-01-30T01:49:04;15.10;;;10.57;;
1410;SDS011;700;51.906;8.404;2024-01-30T01:54:10;13.10;;;11.10;;
1410;SDS011;700;51.906;8.404;2024-01-30T01:59:16;13.43;;;11.50;;
1410;SDS011;700;51.906;8.404;2024-01-30T02:04:18;14.93;;;10.53;;
1410;SDS011;700;51.906;8.404;2024-01-30T02:09:18;15.07;;;10.20;;
1410;SDS011;700;51.906;8.404;2024-01-30T02:14:22;15.93;;;10.23;;
1410;SDS011;700;51.906;8.404;2024-01-30T02:19:22;15.40;;;11.20;;
1410;SDS011;700;51.906;8.404;2024-01-30T02:24:23;12.87;;;10.60;;
1410;SDS011;700;51.906;8.404;2024-01-30T02:29:28;13.10;;;10.97;;
1410;SDS011;700;51.906;8.404;2024-01-30T02:34:31;16.00;;;11.30;;
1410;SDS011;700;51.906;8.404;2024-01-30T02:39:32;14.23;;;11.03;;
1410;SDS011;700;51.906;8.404;2024-01-30T02:44:32;14.03;;;10.80;;
1410;SDS011;700;51.906;8.404;2024-01-30T02:49:35;14.33;;;10.60;;
1410;SDS011;700;51.906;8.404;2024-01-30T02:54:38;16.00;;;11.50;;
1410;SDS011;700;51.906;8.404;2024-01-30T02:59:39;14.00;;;10.20;;
1410;SDS011;700;51.906;8.404;2024-01-30T03:04:43;12.10;;;10.80;;
1410;SDS011;700;51.906;8.404;2024-01-30T03:09:43;12.63;;;10.40;;
1410;SDS011;700;51.906;8.404;2024-01-30T03:14:44;13.53;;;10.20;;
1410;SDS011;700;51.906;8.404;2024-01-30T03:19:45;16.50;;;10.70;;
1410;SDS011;700;51.906;8.404;2024-01-30T03:24:45;12.67;;;10.40;;
1410;SDS011;700;51.906;8.404;2024-01-30T03:29:48;14.17;;;10.07;;
1410;SDS011;700;51.906;8.404;2024-01-30T03:34:49;11.60;;;10.17;;
1410;SDS011;700;51.906;8.404;2024-01-30T03:39:50;12.23;;;9.60;;
1410;SDS011;700;51.906;8.404;2024-01-30T03:44:50;14.80;;;10.93;;
1410;SDS011;700;51.906;8.404;2024-01-30T03:49:57;11.97;;;9.83;;
1410;SDS011;700;51.906;8.404;2024-01-30T03:54:58;12.43;;;10.20;;
1410;SDS011;700;51.906;8.404;2024-01-30T03:59:58;11.67;;;10.10;;
1410;SDS011;700;51.906;8.404;2024-01-30T04:05:03;14.13;;;10.97;;
1410;SDS011;700;51.906;8.404;2024-01-30T04:10:05;14.00;;;10.90;;
1410;SDS011;700;51.906;8.404;2024-01-30T04:15:06;11.00;;;9.30;;
1410;SDS011;700;51.906;8.404;2024-01-30T04:20:07;14.03;;;11.00;;
1410;SDS011;700;51.906;8.404;2024-01-30T04:25:14;15.60;;;10.20;;
1410;SDS011;700;51.906;8.404;2024-01-30T04:30:19;11.87;;;10.20;;
1410;SDS011;700;51.906;8.404;2024-01-30T04:35:19;12.27;;;10.50;;
1410;SDS011;700;51.906;8.404;2024-01-30T04:40:23;15.20;;;10.40;;
1410;SDS011;700;51.906;8.404;2024-01-30T04:45:26;13.60;;;10.60;;
1410;SDS011;700;51.906;8.404;2024-01-30T04:50:26;14.90;;;11.00;;
1410;SDS011;700;51.906;8.404;2024-01-30T04:55:27;13.10;;;10.23;;
1410;SDS011;700;51.906;8.404;2024-01-30T05:00:27;12.23;;;10.10;;
1410;SDS011;700;51.906;8.404;2024-01-30T05:05:31;17.53;;;11.13;;
1410;SDS011;700;51.906;8.404;2024-01-30T05:10:31;14.30;;;9.67;;
1410;SDS011;700;51.906;8.404;2024-01-30T05:15:34;14.13;;;11.07;;
1410;SDS011;700;51.906;8.404;2024-01-30T05:20:37;16.17;;;10.87;;
1410;SDS011;700;51.906;8.404;2024-01-30T05:25:38;15.67;;;10.60;;
1410;SDS011;700;51.906;8.404;2024-01-30T05:30:39;16.50;;;11.70;;
1410;SDS011;700;51.906;8.404;2024-01-30T05:35:44;17.30;;;11.07;;
1410;SDS011;700;51.906;8.404;2024-01-30T05:40:45;13.97;;;11.10;;
1410;SDS011;700;51.906;8.404;2024-01-30T05:45:45;15.97;;;10.80;;
1410;SDS011;700;51.906;8.404;2024-01-30T05:50:49;20.40;;;10.70;;
1410;SDS011;700;51.906;8.404;2024-01-30T05:55:49;16.67;;;12.87;;
1410;SDS011;700;51.906;8.404;2024-01-30T06:00:55;14.47;;;11.13;;
1410;SDS011;700;51.906;8.404;2024-01-30T06:05:55;16.60;;;11.27;;
1410;SDS011;700;51.906;8.404;2024-01-30T06:10:56;18.20;;;10.93;;
1410;SDS011;700;51.906;8.404;2024-01-30T06:15:56;18.47;;;10.17;;
1410;SDS011;700;51.906;8.404;2024-01-30T06:20:57;14.20;;;10.07;;
1410;SDS011;700;51.906;8.404;2024-01-30T06:25:58;16.47;;;11.20;;
1410;SDS011;700;51.906;8.404;2024-01-30T06:31:01;12.97;;;10.30;;
1410;SDS011;700;51.906;8.404;2024-01-30T06:36:01;15.10;;;11.10;;
1410;SDS011;700;51.906;8.404;2024-01-30T06:41:02;13.60;;;10.60;;
1410;SDS011;700;51.906;8.404;2024-01-30T06:46:05;18.83;;;11.43;;
1410;SDS011;700;51.906;8.404;2024-01-30T06:51:06;15.70;;;11.73;;
1410;SDS011;700;51.906;8.404;2024-01-30T06:56:09;14.50;;;10.90;;
1410;SDS011;700;51.906;8.404;2024-01-30T07:01:09;12.73;;;11.27;;
1410;SDS011;700;51.906;8.404;2024-01-30T07:06:10;13.00;;;10.07;;
1410;SDS011;700;51.906;8.404;2024-01-30T07:11:11;22.60;;;12.57;;
1410;SDS011;700;51.906;8.404;2024-01-30T07:16:24;13.50;;;10.80;;
1410;SDS011;700;51.906;8.404;2024-01-30T07:21:30;12.97;;;9.53;;
1410;SDS011;700;51.906;8.404;2024-01-30T07:26:30;16.47;;;10.40;;
1410;SDS011;700;51.906;8.404;2024-01-30T07:31:33;15.70;;;10.70;;
1410;SDS011;700;51.906;8.404;2024-01-30T07:36:36;15.10;;;11.80;;
1410;SDS011;700;51.906;8.404;2024-01-30T07:41:37;20.63;;;12.80;;
1410;SDS011;700;51.906;8.404;2024-01-30T07:46:37;20.70;;;12.20;;
1410;SDS011;700;51.906;8.404;2024-01-30T07:51:38;15.07;;;11.43;;
1410;SDS011;700;51.906;8.404;2024-01-30T07:56:39;18.00;;;12.60;;
1410;SDS011;700;51.906;8.404;2024-01-30T08:01:40;20.23;;;13.57;;
1410;SDS011;700;51.906;8.404;2024-01-30T08:06:44;19.10;;;14.60;;
1410;SDS011;700;51.906;8.404;2024-01-30T08:11:44;16.53;;;12.20;;
1410;SDS011;700;51.906;8.404;2024-01-30T08:16:45;20.33;;;14.20;;
1410;SDS011;700;51.906;8.404;2024-01-30T08:21:46;19.07;;;14.07;;
1410;SDS011;700;51.906;8.404;2024-01-30T08:26:48;16.70;;;12.67;;
1410;SDS011;700;51.906;8.404;2024-01-30T08:31:52;13.33;;;10.80;;
1410;SDS011;700;51.906;8.404;2024-01-30T08:36:53;13.80;;;10.13;;
1410;SDS011;700;51.906;8.404;2024-01-30T08:41:54;14.90;;;10.43;;
1410;SDS011;700;51.906;8.404;2024-01-30T08:46:56;13.13;;;10.57;;
1410;SDS011;700;51.906;8.404;2024-01-30T08:51:57;17.87;;;11.67;;
1410;SDS011;700;51.906;8.404;2024-01-30T08:56:58;12.70;;;10.87;;
1410;SDS011;700;51.906;8.404;2024-01-30T09:01:58;17.07;;;9.90;;
1410;SDS011;700;51.906;8.404;2024-01-30T09:07:01;20.30;;;10.20;;
1410;SDS011;700;51.906;8.404;2024-01-30T09:12:08;12.13;;;8.47;;
1410;SDS011;700;51.906;8.404;2024-01-30T09:17:11;11.63;;;9.00;;
1410;SDS011;700;51.906;8.404;2024-01-30T09:22:13;12.70;;;9.27;;
1410;SDS011;700;51.906;8.404;2024-01-30T09:27:14;10.03;;;8.20;;
1410;SDS011;700;51.906;8.404;2024-01-30T09:32:17;9.63;;;8.23;;
1410;SDS011;700;51.906;8.404;2024-01-30T09:37:18;9.40;;;7.73;;
1410;SDS011;700;51.906;8.404;2024-01-30T09:42:34;9.80;;;8.20;;
1410;SDS011;700;51.906;8.404;2024-01-30T09:47:42;14.40;;;7.80;;
1410;SDS011;700;51.906;8.404;2024-01-30T09:52:46;10.83;;;7.53;;
1410;SDS011;700;51.906;8.404;2024-01-30T09:57:51;9.77;;;7.40;;
1410;SDS011;700;51.906;8.404;2024-01-30T10:02:52;9.13;;;6.70;;
1410;SDS011;700;51.906;8.404;2024-01-30T10:07:53;9.30;;;7.40;;
1410;SDS011;700;51.906;8.404;2024-01-30T10:12:57;7.60;;;6.80;;
1410;SDS011;700;51.906;8.404;2024-01-30T10:17:58;7.80;;;6.90;;
1410;SDS011;700;51.906;8.404;2024-01-30T10:23:03;10.67;;;7.90;;
1410;SDS011;700;51.906;8.404;2024-01-30T10:28:05;8.60;;;6.80;;
1410;SDS011;700;51.906;8.404;2024-01-30T10:33:08;8.70;;;7.20;;
1410;SDS011;700;51.906;8.404;2024-01-30T10:38:11;8.93;;;7.00;;
1410;SDS011;700;51.906;8.404;2024-01-30T10:43:15;9.27;;;8.27;;
1410;SDS011;700;51.906;8.404;2024-01-30T10:48:26;10.00;;;7.63;;
1410;SDS011;700;51.906;8.404;2024-01-30T10:53:30;7.80;;;6.97;;
1410;SDS011;700;51.906;8.404;2024-01-30T10:58:31;9.87;;;7.10;;
1410;SDS011;700;51.906;8.404;2024-01-30T11:03:32;8.60;;;7.10;;
1410;SDS011;700;51.906;8.404;2024-01-30T11:08:36;9.33;;;7.10;;
1410;SDS011;700;51.906;8.404;2024-01-30T11:13:39;7.90;;;7.10;;
1410;SDS011;700;51.906;8.404;2024-01-30T11:18:43;10.00;;;6.90;;
1410;SDS011;700;51.906;8.404;2024-01-30T11:23:50;12.20;;;7.30;;
1410;SDS011;700;51.906;8.404;2024-01-30T11:28:54;9.87;;;6.80;;
1410;SDS011;700;51.906;8.404;2024-01-30T11:33:56;7.93;;;5.80;;
1410;SDS011;700;51.906;8.404;2024-01-30T11:38:57;7.90;;;7.10;;
1410;SDS011;700;51.906;8.404;2024-01-30T11:43:58;14.43;;;7.30;;
1410;SDS011;700;51.906;8.404;2024-01-30T11:49:06;10.00;;;7.00;;
1410;SDS011;700;51.906;8.404;2024-01-30T11:54:07;9.10;;;7.30;;
1410;SDS011;700;51.906;8.404;2024-01-30T11:59:11;7.33;;;6.63;;
1410;SDS011;700;51.906;8.404;2024-01-30T12:04:12;7.60;;;6.60;;
1410;SDS011;700;51.906;8.404;2024-01-30T12:09:18;8.50;;;7.60;;
1410;SDS011;700;51.906;8.404;2024-01-30T12:14:19;10.20;;;6.97;;
1410;SDS011;700;51.906;8.404;2024-01-30T12:19:26;12.10;;;7.60;;
1410;SDS011;700;51.906;8.404;2024-01-30T12:24:27;7.70;;;6.70;;
1410;SDS011;700;51.906;8.404;2024-01-30T12:29:32;9.50;;;6.53;;
1410;SDS011;700;51.906;8.404;2024-01-30T12:34:40;10.63;;;7.13;;
1410;SDS011;700;51.906;8.404;2024-01-30T12:39:43;13.07;;;7.20;;
1410;SDS011;700;51.906;8.404;2024-01-30T12:44:44;8.20;;;7.07;;
1410;SDS011;700;51.906;8.404;2024-01-30T12:49:47;9.73;;;7.53;;
1410;SDS011;700;51.906;8.404;2024-01-30T12:54:48;8.10;;;6.73;;
1410;SDS011;700;51.906;8.404;2024-01-30T12:59:49;8.27;;;6.23;;
1410;SDS011;700;51.906;8.404;2024-01-30T13:04:52;9.37;;;6.30;;
1410;SDS011;700;51.906;8.404;2024-01-30T13:09:54;9.90;;;6.97;;
1410;SDS011;700;51.906;8.404;2024-01-30T13:14:56;9.80;;;6.73;;
1410;SDS011;700;51.906;8.404;2024-01-30T13:19:57;9.37;;;7.00;;
1410;SDS011;700;51.906;8.404;2024-01-30T13:25:00;13.53;;;7.70;;
1410;SDS011;700;51.906;8.404;2024-01-30T13:30:03;9.50;;;7.37;;
1410;SDS011;700;51.906;8.404;2024-01-30T13:35:05;8.80;;;6.67;;
1410;SDS011;700;51.906;8.404;2024-01-30T13:40:05;10.20;;;6.60;;
1410;SDS011;700;51.906;8.404;2024-01-30T13:45:09;9.60;;;6.80;;
1410;SDS011;700;51.906;8.404;2024-01-30T13:50:10;11.10;;;6.60;;
1410;SDS011;700;51.906;8.404;2024-01-30T13:55:15;10.87;;;7.40;;
1410;SDS011;700;51.906;8.404;2024-01-30T14:00:15;12.30;;;7.07;;
1410;SDS011;700;51.906;8.404;2024-01-30T14:05:16;15.80;;;7.67;;
1410;SDS011;700;51.906;8.404;2024-01-30T14:10:18;12.67;;;7.67;;
1410;SDS011;700;51.906;8.404;2024-01-30T14:15:19;10.70;;;7.47;;
1410;SDS011;700;51.906;8.404;2024-01-30T14:20:19;12.67;;;7.00;;
1410;SDS011;700;51.906;8.404;2024-01-30T14:25:20;10.23;;;6.70;;
1410;SDS011;700;51.906;8.404;2024-01-30T14:30:21;11.63;;;7.17;;
1410;SDS011;700;51.906;8.404;2024-01-30T14:35:24;14.77;;;7.30;;
1410;SDS011;700;51.906;8.404;2024-01-30T14:40:27;16.10;;;6.80;;
1410;SDS011;700;51.906;8.404;2024-01-30T14:45:30;9.87;;;6.60;;
1410;SDS011;700;51.906;8.404;2024-01-30T14:50:31;9.70;;;6.93;;
1410;SDS011;700;51.906;8.404;2024-01-30T14:55:37;10.27;;;7.37;;
1410;SDS011;700;51.906;8.404;2024-01-30T15:00:40;10.63;;;7.30;;
1410;SDS011;700;51.906;8.404;2024-01-30T15:05:40;9.60;;;7.30;;
1410;SDS011;700;51.906;8.404;2024-01-30T15:10:41;9.43;;;6.30;;
1410;SDS011;700;51.906;8.404;2024-01-30T15:15:42;14.00;;;7.80;;
1410;SDS011;700;51.906;8.404;2024-01-30T15:20:45;13.70;;;7.20;;
1410;SDS011;700;51.906;8.404;2024-01-30T15:25:45;9.90;;;6.87;;
1410;SDS011;700;51.906;8.404;2024-01-30T15:30:46;13.97;;;8.30;;
1410;SDS011;700;51.906;8.404;2024-01-30T15:35:47;16.40;;;9.20;;
1410;SDS011;700;51.906;8.404;2024-01-30T15:40:49;9.67;;;7.60;;
1410;SDS011;700;51.906;8.404;2024-01-30T15:45:52;9.27;;;7.50;;
1410;SDS011;700;51.906;8.404;2024-01-30T15:50:53;11.17;;;7.97;;
1410;SDS011;700;51.906;8.404;2024-01-30T15:55:54;9.97;;;7.70;;
1410;SDS011;700;51.906;8.404;2024-01-30T16:00:55;13.47;;;8.40;;
1410;SDS011;700;51.906;8.404;2024-01-30T16:05:58;10.17;;;8.10;;
1410;SDS011;700;51.906;8.404;2024-01-30T16:10:58;10.83;;;7.67;;
1410;SDS011;700;51.906;8.404;2024-01-30T16:15:59;12.93;;;8.60;;
1410;SDS011;700;51.906;8.404;2024-01-30T16:21:00;9.23;;;7.10;;
1410;SDS011;700;51.906;8.404;2024-01-30T16:26:03;17.47;;;10.70;;
1410;SDS011;700;51.906;8.404;2024-01-30T16:31:04;11.10;;;7.80;;
1410;SDS011;700;51.906;8.404;2024-01-30T16:36:05;12.50;;;8.03;;
1410;SDS011;700;51.906;8.404;2024-01-30T16:41:08;11.43;;;7.83;;
1410;SDS011;700;51.906;8.404;2024-01-30T16:46:10;16.17;;;8.00;;
1410;SDS011;700;51.906;8.404;2024-01-30T16:51:11;11.77;;;7.70;;
1410;SDS011;700;51.906;8.404;2024-01-30T16:56:14;11.17;;;7.77;;
1410;SDS011;700;51.906;8.404;2024-01-30T17:01:17;11.63;;;8.10;;
1410;SDS011;700;51.906;8.404;2024-01-30T17:06:21;11.30;;;8.30;;
1410;SDS011;700;51.906;8.404;2024-01-30T17:11:22;11.80;;;7.30;;
1410;SDS011;700;51.906;8.404;2024-01-30T17:16:24;12.60;;;8.33;;
1410;SDS011;700;51.906;8.404;2024-01-30T17:21:25;9.70;;;7.10;;
1410;SDS011;700;51.906;8.404;2024-01-30T17:26:28;8.93;;;5.50;;
1410;SDS011;700;51.906;8.404;2024-01-30T17:31:30;13.23;;;8.90;;
1410;SDS011;700;51.906;8.404;2024-01-30T17:36:34;8.30;;;5.63;;
1410;SDS011;700;51.906;8.404;2024-01-30T17:41:34;4.90;;;3.03;;
1410;SDS011;700;51.906;8.404;2024-01-30T17:46:38;5.80;;;3.40;;
1410;SDS011;700;51.906;8.404;2024-01-30T17:51:39;3.80;;;2.10;;
1410;SDS011;700;51.906;8.404;2024-01-30T17:56:42;3.33;;;2.03;;
1410;SDS011;700;51.906;8.404;2024-01-30T18:01:45;3.60;;;1.53;;
1410;SDS011;700;51.906;8.404;2024-01-30T18:06:51;5.23;;;2.30;;
1410;SDS011;700;51.906;8.404;2024-01-30T18:11:53;3.70;;;1.43;;
1410;SDS011;700;51.906;8.404;2024-01-30T18:16:56;2.70;;;1.50;;
1410;SDS011;700;51.906;8.404;2024-01-30T18:21:57;4.67;;;1.37;;
1410;SDS011;700;51.906;8.404;2024-01-30T18:26:57;3.80;;;2.10;;
1410;SDS011;700;51.906;8.404;2024-01-30T18:31:58;4.93;;;1.90;;
1410;SDS011;700;51.906;8.404;2024-01-30T18:36:59;2.97;;;1.37;;
1410;SDS011;700;51.906;8.404;2024-01-30T18:42:03;2.70;;;1.63;;
1410;SDS011;700;51.906;8.404;2024-01-30T18:47:04;9.97;;;4.17;;
1410;SDS011;700;51.906;8.404;2024-01-30T18:52:04;2.47;;;1.50;;
1410;SDS011;700;51.906;8.404;2024-01-30T18:57:07;4.50;;;1.53;;
1410;SDS011;700;51.906;8.404;2024-01-30T19:02:08;4.77;;;1.60;;
1410;SDS011;700;51.906;8.404;2024-01-30T19:07:09;4.47;;;1.50;;
1410;SDS011;700;51.906;8.404;2024-01-30T19:12:09;3.10;;;1.83;;
1410;SDS011;700;51.906;8.404;2024-01-30T19:17:13;2.60;;;1.30;;
1410;SDS011;700;51.906;8.404;2024-01-30T19:22:14;4.80;;;2.97;;
1410;SDS011;700;51.906;8.404;2024-01-30T19:27:15;5.27;;;3.77;;
1410;SDS011;700;51.906;8.404;2024-01-30T19:32:16;8.60;;;4.33;;
1410;SDS011;700;51.906;8.404;2024-01-30T19:37:18;4.27;;;3.60;;
1410;SDS011;700;51.906;8.404;2024-01-30T19:42:25;5.33;;;3.33;;
1410;SDS011;700;51.906;8.404;2024-01-30T19:47:27;4.67;;;3.27;;
1410;SDS011;700;51.906;8.404;2024-01-30T19:52:27;7.83;;;4.00;;
1410;SDS011;700;51.906;8.404;2024-01-30T19:57:28;7.17;;;4.93;;
1410;SDS011;700;51.906;8.404;2024-01-30T20:02:28;7.40;;;5.20;;
1410;SDS011;700;51.906;8.404;2024-01-30T20:07:29;6.93;;;5.03;;
1410;SDS011;700;51.906;8.404;2024-01-30T20:12:32;7.23;;;5.67;;
1410;SDS011;700;51.906;8.404;2024-01-30T20:17:33;9.00;;;5.80;;
1410;SDS011;700;51.906;8.404;2024-01-30T20:22:36;11.30;;;6.93;;
1410;SDS011;700;51.906;8.404;2024-01-30T20:27:37;7.70;;;5.80;;
1410;SDS011;700;51.906;8.404;2024-01-30T20:32:38;9.67;;;7.13;;
1410;SDS011;700;51.906;8.404;2024-01-30T20:37:39;9.40;;;6.17;;
1410;SDS011;700;51.906;8.404;2024-01-30T20:42:39;10.70;;;7.13;;
1410;SDS011;700;51.906;8.404;2024-01-30T20:47:40;10.67;;;7.53;;
1410;SDS011;700;51.906;8.404;2024-01-30T20:52:43;8.80;;;6.80;;
1410;SDS011;700;51.906;8.404;2024-01-30T20:57:46;11.10;;;8.50;;
1410;SDS011;700;51.906;8.404;2024-01-30T21:02:47;14.13;;;8.50;;
1410;SDS011;700;51.906;8.404;2024-01-30T21:07:48;12.70;;;8.33;;
1410;SDS011;700;51.906;8.404;2024-01-30T21:12:50;11.00;;;7.90;;
1410;SDS011;700;51.906;8.404;2024-01-30T21:17:51;12.93;;;8.30;;
1410;SDS011;700;51.906;8.404;2024-01-30T21:22:51;10.77;;;7.93;;
1410;SDS011;700;51.906;8.404;2024-01-30T21:27:53;12.40;;;8.37;;
1410;SDS011;700;51.906;8.404;2024-01-30T21:32:54;12.00;;;8.27;;
1410;SDS011;700;51.906;8.404;2024-01-30T21:37:55;10.27;;;7.13;;
1410;SDS011;700;51.906;8.404;2024-01-30T21:42:57;11.30;;;8.03;;
1410;SDS011;700;51.906;8.404;2024-01-30T21:47:57;13.03;;;8.70;;
1410;SDS011;700;51.906;8.404;2024-01-30T21:53:00;16.83;;;10.80;;
1410;SDS011;700;51.906;8.404;2024-01-30T21:58:03;12.27;;;9.00;;
1410;SDS011;700;51.906;8.404;2024-01-30T22:03:04;14.10;;;10.00;;
1410;SDS011;700;51.906;8.404;2024-01-30T22:08:09;15.30;;;10.90;;
1410;SDS011;700;51.906;8.404;2024-01-30T22:13:10;14.20;;;9.67;;
1410;SDS011;700;51.906;8.404;2024-01-30T22:18:11;13.93;;;9.90;;
1410;SDS011;700;51.906;8.404;2024-01-30T22:23:12;14.63;;;9.30;;
1410;SDS011;700;51.906;8.404;2024-01-30T22:28:12;14.67;;;10.33;;
1410;SDS011;700;51.906;8.404;2024-01-30T22:33:14;20.03;;;10.93;;
1410;SDS011;700;51.906;8.404;2024-01-30T22:38:14;16.83;;;12.07;;
1410;SDS011;700;51.906;8.404;2024-01-30T22:43:17;17.07;;;10.87;;
1410;SDS011;700;51.906;8.404;2024-01-30T22:48:20;12.63;;;6.80;;
1410;SDS011;700;51.906;8.404;2024-01-30T22:53:23;8.57;;;5.40;;
1410;SDS011;700;51.906;8.404;2024-01-30T22:58:24;9.00;;;6.60;;
1410;SDS011;700;51.906;8.404;2024-01-30T23:03:24;6.90;;;5.00;;
1410;SDS011;700;51.906;8.404;2024-01-30T23:08:25;12.20;;;5.30;;
1410;SDS011;700;51.906;8.404;2024-01-30T23:13:27;11.10;;;4.83;;
1410;SDS011;700;51.906;8.404;2024-01-30T23:18:27;5.83;;;4.40;;
1410;SDS011;700;51.906;8.404;2024-01-30T23:23:30;6.90;;;4.63;;
1410;SDS011;700;51.906;8.404;2024-01-30T23:28:31;7.10;;;5.30;;
1410;SDS011;700;51.906;8.404;2024-01-30T23:33:31;9.00;;;5.47;;
1410;SDS011;700;51.906;8.404;2024-01-30T23:38:32;7.27;;;4.40;;
1410;SDS011;700;51.906;8.404;2024-01-30T23:43:33;7.33;;;5.10;;
1410;SDS011;700;51.906;8.404;2024-01-30T23:48:36;10.93;;;5.20;;
1410;SDS011;700;51.906;8.404;2024-01-30T23:53:36;12.00;;;5.63;;
1410;SDS011;700;51.906;8.404;2024-01-30T23:58:39;8.53;;;5.73;;
